Terminal Aerodrome Forecast
Issued by NWS

Home | Current Version | Previous Version | Text Only | Print | Product List | Glossary On
Versions: 1 2 3 4 5 6 7 8 9 10 11 12 13 14 15 16 17
000
FTUS43 KAPX 161720
TAFTVC
TAF
KTVC 161720Z 1618/1718 20005KT P6SM OVC250
     FM162200 18004KT 5SM BR BKN250
     FM170100 VRB03KT 4SM BR VCSH BKN060
     FM170400 VRB03KT 2SM -FZRASNPL BR OVC015
     FM170700 10005KT 2SM -FZRAPL BR OVC008
     FM170800 09005KT 1 1/2SM FZRA BR OVC008
     FM171200 08007KT 1SM -FZRA BR OVC008
     FM171400 08007KT 1/2SM -RA FG OVC003
     FM171500 08007KT 3/4SM -RA BR OVC003=

USA.gov is the U.S. government's official web portal to all federal, state and local government web resources and services.